createdAt,value
2022-09-11T00:01:33.335Z,14.90
2022-09-11T00:04:00.590Z,14.90
2022-09-11T00:06:30.174Z,14.90
2022-09-11T00:09:00.827Z,14.90
2022-09-11T00:11:31.752Z,14.90
2022-09-11T00:13:59.207Z,15.00
2022-09-11T00:16:37.879Z,15.00
2022-09-11T00:19:08.368Z,15.10
2022-09-11T00:21:36.458Z,15.00
2022-09-11T00:24:04.213Z,15.10
2022-09-11T00:26:31.242Z,15.10
2022-09-11T00:28:58.598Z,15.10
2022-09-11T00:31:28.464Z,15.10
2022-09-11T00:33:56.641Z,15.10
2022-09-11T00:36:29.408Z,15.10
2022-09-11T00:38:57.999Z,15.10
2022-09-11T00:41:36.216Z,15.10
2022-09-11T00:44:28.414Z,15.10
2022-09-11T00:46:59.858Z,15.10
2022-09-11T00:49:34.768Z,15.10
2022-09-11T00:52:05.652Z,15.10
2022-09-11T00:54:37.796Z,15.00
2022-09-11T00:57:08.398Z,15.00
2022-09-11T00:59:36.768Z,15.00
2022-09-11T01:02:05.064Z,15.00
2022-09-11T01:04:33.552Z,15.00
2022-09-11T01:07:01.615Z,15.10
2022-09-11T01:09:30.960Z,15.20
2022-09-11T01:12:15.809Z,15.20
2022-09-11T01:15:03.256Z,15.10
2022-09-11T01:17:54.209Z,15.10
2022-09-11T01:20:59.932Z,15.10
2022-09-11T01:23:46.062Z,15.20
2022-09-11T01:26:43.080Z,15.20
2022-09-11T01:29:26.484Z,15.20
2022-09-11T01:32:11.770Z,15.20
2022-09-11T01:35:03.027Z,15.20
2022-09-11T01:37:59.476Z,15.30
2022-09-11T01:40:36.743Z,15.30
2022-09-11T01:43:09.012Z,15.30
2022-09-11T01:45:39.951Z,15.30
2022-09-11T01:48:09.039Z,15.30
2022-09-11T01:50:40.482Z,15.30
2022-09-11T01:53:12.386Z,15.30
2022-09-11T01:55:46.034Z,15.30
2022-09-11T01:58:24.892Z,15.40
2022-09-11T02:00:57.917Z,15.40
2022-09-11T02:03:31.406Z,15.40
2022-09-11T02:06:05.427Z,15.40
2022-09-11T02:09:13.624Z,15.40
2022-09-11T02:11:43.526Z,15.50
2022-09-11T02:14:17.525Z,15.40
2022-09-11T02:16:56.663Z,15.50
2022-09-11T02:19:29.679Z,15.50
2022-09-11T02:21:59.615Z,15.50
2022-09-11T02:24:27.488Z,15.50
2022-09-11T02:27:07.399Z,15.40
2022-09-11T02:29:35.070Z,15.40
2022-09-11T02:32:03.934Z,15.30
2022-09-11T02:34:34.278Z,15.20
2022-09-11T02:37:03.314Z,15.20
2022-09-11T02:39:40.648Z,15.20
2022-09-11T02:42:34.135Z,15.20
2022-09-11T02:45:08.349Z,15.10
2022-09-11T02:48:07.817Z,15.00
2022-09-11T02:51:01.399Z,15.00
2022-09-11T02:53:47.958Z,15.00
2022-09-11T02:56:21.794Z,15.00
2022-09-11T02:58:58.477Z,15.00
2022-09-11T03:01:28.231Z,15.00
2022-09-11T03:03:55.556Z,14.90
2022-09-11T03:06:28.156Z,14.90
2022-09-11T03:08:55.731Z,14.90
2022-09-11T03:11:23.047Z,15.00
2022-09-11T03:13:50.699Z,15.00
2022-09-11T03:16:17.841Z,15.00
2022-09-11T03:18:45.114Z,15.00
2022-09-11T03:21:12.038Z,15.00
2022-09-11T03:23:39.498Z,15.10
2022-09-11T03:26:07.273Z,15.00
2022-09-11T03:28:34.660Z,15.20
2022-09-11T03:31:08.774Z,15.20
2022-09-11T03:33:37.382Z,15.20
2022-09-11T03:36:04.785Z,15.30
2022-09-11T03:38:33.045Z,15.30
2022-09-11T03:41:00.379Z,15.30
2022-09-11T03:43:27.350Z,15.20
2022-09-11T03:45:54.396Z,15.10
2022-09-11T03:48:21.419Z,15.10
2022-09-11T03:50:48.554Z,15.10
2022-09-11T03:53:16.310Z,15.20
2022-09-11T03:55:46.606Z,15.30
2022-09-11T03:58:14.204Z,15.30
2022-09-11T04:00:47.578Z,15.20
2022-09-11T04:03:16.729Z,15.20
2022-09-11T04:05:56.015Z,15.30
2022-09-11T04:08:23.135Z,15.30
2022-09-11T04:10:59.667Z,15.30
2022-09-11T04:13:28.696Z,15.30
2022-09-11T04:16:03.242Z,15.30
2022-09-11T04:18:35.036Z,15.40
2022-09-11T04:21:13.360Z,15.40
2022-09-11T04:23:41.728Z,15.30
2022-09-11T04:26:18.320Z,15.30
2022-09-11T04:28:48.459Z,15.30
2022-09-11T04:31:17.107Z,15.30
2022-09-11T04:33:45.315Z,15.20
2022-09-11T04:36:18.843Z,15.20
2022-09-11T04:38:47.874Z,15.30
2022-09-11T04:41:16.505Z,15.30
2022-09-11T04:43:44.618Z,15.30
2022-09-11T04:46:15.736Z,15.30
2022-09-11T04:48:48.805Z,15.40
2022-09-11T04:51:29.203Z,15.40
2022-09-11T04:53:58.886Z,15.40
2022-09-11T04:56:34.255Z,15.30
2022-09-11T04:59:05.733Z,15.30
2022-09-11T05:01:35.725Z,15.20
2022-09-11T05:04:03.522Z,15.30
2022-09-11T05:06:32.210Z,15.20
2022-09-11T05:09:05.962Z,15.20
2022-09-11T05:11:35.915Z,15.20
2022-09-11T05:14:03.515Z,15.20
2022-09-11T05:16:34.785Z,15.20
2022-09-11T05:19:04.336Z,15.30
2022-09-11T05:21:33.951Z,15.30
2022-09-11T05:24:02.419Z,15.30
2022-09-11T05:26:33.911Z,15.40
2022-09-11T05:29:05.387Z,15.30
2022-09-11T05:31:33.952Z,15.30
2022-09-11T05:34:03.197Z,15.30
2022-09-11T05:36:34.305Z,15.40
2022-09-11T05:39:03.727Z,15.40
2022-09-11T05:41:33.083Z,15.40
2022-09-11T05:44:00.147Z,15.40
2022-09-11T05:46:27.306Z,15.30
2022-09-11T05:48:59.198Z,15.40
2022-09-11T05:51:27.662Z,15.40
2022-09-11T05:53:58.158Z,15.50
2022-09-11T05:56:28.270Z,15.50
2022-09-11T05:58:59.418Z,15.50
2022-09-11T06:01:34.974Z,15.50
2022-09-11T06:04:12.374Z,15.60
2022-09-11T06:06:41.905Z,15.70
2022-09-11T06:09:08.963Z,15.70
2022-09-11T06:11:36.308Z,15.80
2022-09-11T06:14:03.749Z,15.80
2022-09-11T06:16:31.687Z,15.80
2022-09-11T06:19:05.762Z,15.80
2022-09-11T06:21:33.085Z,15.90
2022-09-11T06:24:07.228Z,16.00
2022-09-11T06:26:35.715Z,16.00
2022-09-11T06:29:03.188Z,16.10
2022-09-11T06:31:31.363Z,16.20
2022-09-11T06:33:58.419Z,16.30
2022-09-11T06:36:27.106Z,16.20
2022-09-11T06:38:57.739Z,16.20
2022-09-11T06:41:27.882Z,16.20
2022-09-11T06:44:03.582Z,16.30
2022-09-11T06:46:31.587Z,16.40
2022-09-11T06:49:00.606Z,16.50
2022-09-11T06:51:29.106Z,16.60
2022-09-11T06:53:59.459Z,16.60
2022-09-11T06:56:32.436Z,16.70
2022-09-11T06:59:01.236Z,16.70
2022-09-11T07:01:29.957Z,16.90
2022-09-11T07:04:02.841Z,16.90
2022-09-11T07:06:33.087Z,17.10
2022-09-11T07:09:03.038Z,17.40
2022-09-11T07:11:43.768Z,17.60
2022-09-11T07:14:11.228Z,18.00
2022-09-11T07:16:41.135Z,18.60
2022-09-11T07:19:11.674Z,18.80
2022-09-11T07:21:39.871Z,18.60
2022-09-11T07:24:07.573Z,18.50
2022-09-11T07:26:38.887Z,18.60
2022-09-11T07:29:19.118Z,18.90
2022-09-11T07:31:47.876Z,19.00
2022-09-11T07:34:16.176Z,19.20
2022-09-11T07:36:44.659Z,19.20
2022-09-11T07:39:12.700Z,19.30
2022-09-11T07:41:50.322Z,19.40
2022-09-11T07:44:23.718Z,19.40
2022-09-11T07:46:51.562Z,19.60
2022-09-11T07:49:18.763Z,19.30
2022-09-11T07:51:46.422Z,19.60
2022-09-11T07:54:17.512Z,19.60
2022-09-11T07:56:44.736Z,18.80
2022-09-11T07:59:12.517Z,18.90
2022-09-11T08:01:43.878Z,19.50
2022-09-11T08:04:14.574Z,19.70
2022-09-11T08:06:42.487Z,19.80
2022-09-11T08:09:16.919Z,19.80
2022-09-11T08:11:49.732Z,19.60
2022-09-11T08:14:18.704Z,19.80
2022-09-11T08:16:48.494Z,19.70
2022-09-11T08:19:19.615Z,19.60
2022-09-11T08:21:52.863Z,19.60
2022-09-11T08:24:21.429Z,19.30
2022-09-11T08:26:51.067Z,19.10
2022-09-11T08:29:19.619Z,19.30
2022-09-11T08:31:47.887Z,19.60
2022-09-11T08:34:16.376Z,19.90
2022-09-11T08:36:45.002Z,20.10
2022-09-11T08:39:12.367Z,20.50
2022-09-11T08:41:54.291Z,20.60
2022-09-11T08:44:47.735Z,20.40
2022-09-11T08:47:27.769Z,20.40
2022-09-11T08:50:15.955Z,20.60
2022-09-11T08:52:44.755Z,20.30
2022-09-11T08:55:17.191Z,20.10
2022-09-11T08:58:04.051Z,20.10
2022-09-11T09:00:57.621Z,20.30
2022-09-11T09:03:30.777Z,20.50
2022-09-11T09:06:21.246Z,21.00
2022-09-11T09:09:18.723Z,22.30
2022-09-11T09:11:58.852Z,23.00
2022-09-11T09:14:48.290Z,23.10
2022-09-11T09:17:23.204Z,23.20
2022-09-11T09:20:13.364Z,23.80
2022-09-11T09:23:19.036Z,23.30
2022-09-11T09:25:48.228Z,22.90
2022-09-11T09:28:27.050Z,22.50
2022-09-11T09:31:04.558Z,22.40
2022-09-11T09:33:35.283Z,22.40
2022-09-11T09:36:24.423Z,21.80
2022-09-11T09:38:53.739Z,21.70
2022-09-11T09:41:51.770Z,21.60
2022-09-11T09:44:40.282Z,22.20
2022-09-11T09:47:12.248Z,24.00
2022-09-11T09:49:39.879Z,25.50
2022-09-11T09:52:17.142Z,26.20
2022-09-11T09:54:55.169Z,27.40
2022-09-11T09:57:26.144Z,28.80
2022-09-11T10:00:07.608Z,29.90
2022-09-11T10:02:45.512Z,30.50
2022-09-11T10:05:24.688Z,30.30
2022-09-11T10:07:53.693Z,29.00
2022-09-11T10:10:21.947Z,27.10
2022-09-11T10:12:48.875Z,28.50
2022-09-11T10:15:19.682Z,28.10
2022-09-11T10:17:46.766Z,30.00
2022-09-11T10:20:23.798Z,30.80
2022-09-11T10:22:51.176Z,31.00
2022-09-11T10:25:20.198Z,32.40
2022-09-11T10:27:50.038Z,30.60
2022-09-11T10:30:32.043Z,30.20
2022-09-11T10:33:03.294Z,30.60
2022-09-11T10:35:31.572Z,30.50
2022-09-11T10:38:05.348Z,31.30
2022-09-11T10:40:32.285Z,32.40
2022-09-11T10:42:59.091Z,32.10
2022-09-11T10:45:26.083Z,31.40
2022-09-11T10:47:53.167Z,32.40
2022-09-11T10:50:21.890Z,32.80
2022-09-11T10:52:54.575Z,29.30
2022-09-11T10:55:21.860Z,28.70
2022-09-11T10:57:52.908Z,30.60
2022-09-11T11:00:22.793Z,31.40
2022-09-11T11:02:54.926Z,30.00
2022-09-11T11:05:21.785Z,29.50
2022-09-11T11:07:53.266Z,29.10
2022-09-11T11:10:20.363Z,28.80
2022-09-11T11:13:06.949Z,27.90
2022-09-11T11:15:39.751Z,27.40
2022-09-11T11:18:19.117Z,27.10
2022-09-11T11:20:45.999Z,26.30
2022-09-11T11:23:22.350Z,25.70
2022-09-11T11:25:59.920Z,25.70
2022-09-11T11:28:36.016Z,26.90
2022-09-11T11:31:15.852Z,26.10
2022-09-11T11:33:46.987Z,25.10
2022-09-11T11:36:18.767Z,24.60
2022-09-11T11:39:00.586Z,23.80
2022-09-11T11:41:44.668Z,23.30
2022-09-11T11:44:33.860Z,23.10
2022-09-11T11:47:04.412Z,23.00
2022-09-11T11:49:41.655Z,23.30
2022-09-11T11:52:34.396Z,24.00
2022-09-11T11:55:20.821Z,24.90
2022-09-11T11:58:18.598Z,26.80
2022-09-11T12:00:56.679Z,27.80
2022-09-11T12:03:52.935Z,28.80
2022-09-11T12:06:20.656Z,28.60
2022-09-11T12:08:48.313Z,28.80
2022-09-11T12:11:22.666Z,27.70
2022-09-11T12:13:49.811Z,26.90
2022-09-11T12:16:31.833Z,26.60
2022-09-11T12:19:07.492Z,26.00
2022-09-11T12:21:40.586Z,25.30
2022-09-11T12:24:07.986Z,24.50
2022-09-11T12:26:34.938Z,23.90
2022-09-11T12:29:14.392Z,23.50
2022-09-11T12:31:50.421Z,23.30
2022-09-11T12:34:43.332Z,23.10
2022-09-11T12:37:27.633Z,23.60
2022-09-11T12:40:27.532Z,23.60
2022-09-11T12:43:14.879Z,23.60
2022-09-11T12:45:42.303Z,24.00
2022-09-11T12:48:13.606Z,24.20
2022-09-11T12:50:49.295Z,24.50
2022-09-11T12:53:23.595Z,24.30
2022-09-11T12:56:06.348Z,24.40
2022-09-11T12:58:43.782Z,24.50
2022-09-11T13:01:11.208Z,25.10
2022-09-11T13:04:14.697Z,26.10
2022-09-11T13:07:02.523Z,27.10
2022-09-11T13:09:33.978Z,27.20
2022-09-11T13:12:24.957Z,27.20
2022-09-11T13:14:58.971Z,26.40
2022-09-11T13:17:30.664Z,26.20
2022-09-11T13:20:22.381Z,26.10
2022-09-11T13:22:56.103Z,26.20
2022-09-11T13:25:28.625Z,26.20
2022-09-11T13:28:00.052Z,26.40
2022-09-11T13:30:27.486Z,27.00
2022-09-11T13:33:09.255Z,26.70
2022-09-11T13:35:40.314Z,27.00
2022-09-11T13:38:30.543Z,29.20
2022-09-11T13:41:13.280Z,30.90
2022-09-11T13:43:57.954Z,30.80
2022-09-11T13:46:31.556Z,33.10
2022-09-11T13:49:11.058Z,35.30
2022-09-11T13:51:43.861Z,35.80
2022-09-11T13:54:38.510Z,36.00
2022-09-11T13:57:15.496Z,34.00
2022-09-11T13:59:57.129Z,33.30
2022-09-11T14:02:54.630Z,34.10
2022-09-11T14:05:27.942Z,35.00
2022-09-11T14:08:10.275Z,34.70
2022-09-11T14:10:43.052Z,34.40
2022-09-11T14:13:23.161Z,32.20
2022-09-11T14:15:56.877Z,32.70
2022-09-11T14:18:42.401Z,33.90
2022-09-11T14:21:24.329Z,34.90
2022-09-11T14:23:54.612Z,35.20
2022-09-11T14:26:32.478Z,36.10
2022-09-11T14:29:07.070Z,36.90
2022-09-11T14:31:37.174Z,36.00
2022-09-11T14:34:25.782Z,36.60
2022-09-11T14:36:55.665Z,38.20
2022-09-11T14:39:40.745Z,36.40
2022-09-11T14:42:16.208Z,34.90
2022-09-11T14:44:43.964Z,36.10
2022-09-11T14:47:23.250Z,36.90
2022-09-11T14:49:55.661Z,36.80
2022-09-11T14:52:25.924Z,38.80
2022-09-11T14:54:53.536Z,38.40
2022-09-11T14:57:24.314Z,36.30
2022-09-11T14:59:52.485Z,35.80
2022-09-11T15:02:25.447Z,37.10
2022-09-11T15:04:54.151Z,38.20
2022-09-11T15:07:23.423Z,38.40
2022-09-11T15:09:51.985Z,37.00
2022-09-11T15:12:19.504Z,34.40
2022-09-11T15:14:57.622Z,33.70
2022-09-11T15:17:25.676Z,32.80
2022-09-11T15:19:53.540Z,32.10
2022-09-11T15:22:21.004Z,31.60
2022-09-11T15:24:48.834Z,30.50
2022-09-11T15:27:16.351Z,28.80
2022-09-11T15:29:43.251Z,27.80
2022-09-11T15:32:10.573Z,28.50
2022-09-11T15:34:39.807Z,30.80
2022-09-11T15:37:06.990Z,32.70
2022-09-11T15:39:34.106Z,34.00
2022-09-11T15:42:04.099Z,34.40
2022-09-11T15:44:31.094Z,35.00
2022-09-11T15:46:59.160Z,36.00
2022-09-11T15:49:29.231Z,35.70
2022-09-11T15:51:58.011Z,35.90
2022-09-11T15:54:25.610Z,35.90
2022-09-11T15:56:53.276Z,36.50
2022-09-11T15:59:20.242Z,36.70
2022-09-11T16:01:47.474Z,36.40
2022-09-11T16:04:19.334Z,35.30
2022-09-11T16:06:48.493Z,34.90
2022-09-11T16:09:22.172Z,35.20
2022-09-11T16:11:50.578Z,34.20
2022-09-11T16:14:19.792Z,34.70
2022-09-11T16:16:47.551Z,35.20
2022-09-11T16:19:15.984Z,35.60
2022-09-11T16:21:43.426Z,34.40
2022-09-11T16:24:11.632Z,34.80
2022-09-11T16:26:38.721Z,32.80
2022-09-11T16:29:11.859Z,30.30
2022-09-11T16:31:39.709Z,28.90
2022-09-11T16:34:07.423Z,26.60
2022-09-11T16:36:42.656Z,26.10
2022-09-11T16:39:13.036Z,25.80
2022-09-11T16:41:40.645Z,25.00
2022-09-11T16:44:10.360Z,24.40
2022-09-11T16:46:37.707Z,23.90
2022-09-11T16:49:06.169Z,23.60
2022-09-11T16:51:34.211Z,23.70
2022-09-11T16:54:02.104Z,23.30
2022-09-11T16:56:29.074Z,23.10
2022-09-11T16:58:56.267Z,22.90
2022-09-11T17:01:26.264Z,22.70
2022-09-11T17:03:55.791Z,22.50
2022-09-11T17:06:28.236Z,22.50
2022-09-11T17:08:55.530Z,22.40
2022-09-11T17:11:22.511Z,22.30
2022-09-11T17:13:49.443Z,22.10
2022-09-11T17:16:20.998Z,21.70
2022-09-11T17:18:48.767Z,21.40
2022-09-11T17:21:16.358Z,21.20
2022-09-11T17:23:43.708Z,21.10
2022-09-11T17:26:12.582Z,21.00
2022-09-11T17:28:40.168Z,20.60
2022-09-11T17:31:08.841Z,20.30
2022-09-11T17:33:37.770Z,20.30
2022-09-11T17:36:05.387Z,20.00
2022-09-11T17:38:32.413Z,19.70
2022-09-11T17:41:00.177Z,19.40
2022-09-11T17:43:27.039Z,19.20
2022-09-11T17:46:00.653Z,19.00
2022-09-11T17:48:27.656Z,18.90
2022-09-11T17:51:05.514Z,18.80
2022-09-11T17:53:37.675Z,18.70
2022-09-11T17:56:10.004Z,18.60
2022-09-11T17:58:37.199Z,18.40
2022-09-11T18:01:05.342Z,18.40
2022-09-11T18:03:33.552Z,18.30
2022-09-11T18:06:01.227Z,18.20
2022-09-11T18:08:29.199Z,18.10
2022-09-11T18:11:00.223Z,17.90
2022-09-11T18:13:27.862Z,17.80
2022-09-11T18:15:56.167Z,17.70
2022-09-11T18:18:26.469Z,17.70
2022-09-11T18:20:56.314Z,17.50
2022-09-11T18:23:23.637Z,17.40
2022-09-11T18:25:51.540Z,17.30
2022-09-11T18:28:20.094Z,17.20
2022-09-11T18:30:47.542Z,17.30
2022-09-11T18:33:16.746Z,17.20
2022-09-11T18:35:44.582Z,17.00
2022-09-11T18:38:11.494Z,16.90
2022-09-11T18:40:39.055Z,16.90
2022-09-11T18:43:08.863Z,17.00
2022-09-11T18:45:36.179Z,16.90
2022-09-11T18:48:03.778Z,16.70
2022-09-11T18:50:30.608Z,16.60
2022-09-11T18:52:57.386Z,16.30
2022-09-11T18:55:24.484Z,16.30
2022-09-11T18:57:51.808Z,16.10
2022-09-11T19:00:18.784Z,16.00
2022-09-11T19:02:46.370Z,15.90
2022-09-11T19:05:15.492Z,15.90
2022-09-11T19:07:43.801Z,16.00
2022-09-11T19:10:11.717Z,16.10
2022-09-11T19:12:39.141Z,15.90
2022-09-11T19:15:07.099Z,15.70
2022-09-11T19:17:34.279Z,15.60
2022-09-11T19:20:01.170Z,15.60
2022-09-11T19:22:29.004Z,15.80
2022-09-11T19:24:56.034Z,15.70
2022-09-11T19:27:22.848Z,15.50
2022-09-11T19:29:50.050Z,15.50
2022-09-11T19:32:17.700Z,15.50
2022-09-11T19:34:47.272Z,15.30
2022-09-11T19:37:15.230Z,15.40
2022-09-11T19:39:42.329Z,15.30
2022-09-11T19:42:09.500Z,15.20
2022-09-11T19:44:36.426Z,15.20
2022-09-11T19:47:03.349Z,15.10
2022-09-11T19:49:30.228Z,15.00
2022-09-11T19:51:58.160Z,15.00
2022-09-11T19:54:25.199Z,15.10
2022-09-11T19:56:52.075Z,15.00
2022-09-11T19:59:19.490Z,15.10
2022-09-11T20:01:46.696Z,15.10
2022-09-11T20:04:15.535Z,15.10
2022-09-11T20:06:42.334Z,15.10
2022-09-11T20:11:56.443Z,14.70
2022-09-11T20:14:23.339Z,14.80
2022-09-11T20:16:50.191Z,14.80
2022-09-11T20:19:17.411Z,14.70
2022-09-11T20:21:44.575Z,14.60
2022-09-11T20:24:11.440Z,14.50
2022-09-11T20:26:38.371Z,14.50
2022-09-11T20:29:09.589Z,14.50
2022-09-11T20:31:46.312Z,14.40
2022-09-11T20:34:14.992Z,14.50
2022-09-11T20:36:41.839Z,14.40
2022-09-11T20:39:10.900Z,14.30
2022-09-11T20:41:37.743Z,14.30
2022-09-11T20:44:04.855Z,14.30
2022-09-11T20:46:31.762Z,14.20
2022-09-11T20:49:00.014Z,14.30
2022-09-11T20:51:27.823Z,14.40
2022-09-11T20:53:55.365Z,14.30
2022-09-11T20:56:25.267Z,14.30
2022-09-11T20:58:52.235Z,14.40
2022-09-11T21:01:21.370Z,14.40
2022-09-11T21:03:52.327Z,14.30
2022-09-11T21:06:24.753Z,14.40
2022-09-11T21:08:54.434Z,14.30
2022-09-11T21:11:21.631Z,14.20
2022-09-11T21:13:49.752Z,14.20
2022-09-11T21:16:16.667Z,14.20
2022-09-11T21:18:47.603Z,14.10
2022-09-11T21:21:14.602Z,14.00
2022-09-11T21:23:41.460Z,14.00
2022-09-11T21:26:09.619Z,13.90
2022-09-11T21:28:36.459Z,13.80
2022-09-11T21:31:03.730Z,13.90
2022-09-11T21:33:32.465Z,13.90
2022-09-11T21:35:59.871Z,13.90
2022-09-11T21:38:30.255Z,13.90
2022-09-11T21:40:58.235Z,13.90
2022-09-11T21:43:25.330Z,13.80
2022-09-11T21:45:52.427Z,14.00
2022-09-11T21:48:19.702Z,13.90
2022-09-11T21:50:46.694Z,13.80
2022-09-11T21:53:13.496Z,13.60
2022-09-11T21:55:41.279Z,13.70
2022-09-11T21:58:08.549Z,13.60
2022-09-11T22:00:38.438Z,13.60
2022-09-11T22:03:10.044Z,13.50
2022-09-11T22:05:39.024Z,13.50
2022-09-11T22:08:07.234Z,13.40
2022-09-11T22:10:34.060Z,13.40
2022-09-11T22:13:01.112Z,13.30
2022-09-11T22:15:27.907Z,13.30
2022-09-11T22:17:54.697Z,13.30
2022-09-11T22:20:21.686Z,13.30
2022-09-11T22:22:48.862Z,13.30
2022-09-11T22:25:15.651Z,13.20
2022-09-11T22:27:45.412Z,13.20
2022-09-11T22:30:13.691Z,13.30
2022-09-11T22:32:40.546Z,13.20
2022-09-11T22:35:07.665Z,13.20
2022-09-11T22:37:34.550Z,13.10
2022-09-11T22:40:01.498Z,13.10
2022-09-11T22:42:28.471Z,13.10
2022-09-11T22:44:55.263Z,13.10
2022-09-11T22:47:22.255Z,13.10
2022-09-11T22:49:49.550Z,13.20
2022-09-11T22:52:16.403Z,13.20
2022-09-11T22:54:44.587Z,13.00
2022-09-11T22:57:11.878Z,12.90
2022-09-11T22:59:38.794Z,13.00
2022-09-11T23:02:06.797Z,13.00
2022-09-11T23:04:33.756Z,13.10
2022-09-11T23:07:16.036Z,13.00
2022-09-11T23:09:43.795Z,12.80
2022-09-11T23:12:10.648Z,12.80
2022-09-11T23:14:37.759Z,12.80
2022-09-11T23:17:04.655Z,12.70
2022-09-11T23:19:32.631Z,12.70
2022-09-11T23:21:59.442Z,12.70
2022-09-11T23:24:26.464Z,12.70
2022-09-11T23:26:53.383Z,12.60
2022-09-11T23:29:20.308Z,12.70
2022-09-11T23:31:47.203Z,12.80
2022-09-11T23:34:15.340Z,12.80
2022-09-11T23:36:42.484Z,12.80
2022-09-11T23:39:09.371Z,12.60
2022-09-11T23:41:36.198Z,12.60
2022-09-11T23:44:03.930Z,12.60
2022-09-11T23:46:30.799Z,12.70
2022-09-11T23:48:57.794Z,12.60
2022-09-11T23:51:24.614Z,12.70
2022-09-11T23:53:51.975Z,12.60
2022-09-11T23:56:19.311Z,12.50
2022-09-11T23:58:46.634Z,12.50
